Faranah Airport


Codes: GUFH/FAA
Name: Faranah Airport
City:
Country: Guinea
Elevation: 1476 ft.
Wikipedia:

Photos at Faranah Airport


   Photos courtesy of SpottingLog. You can add your own sightings and photos by signing up for a free trial today.



No photos found.

Weather at Faranah Airport


Time (UTC)DescriptionTempratureWindCloud coverageVisibilityPressureHumidity
18-Apr-2024 00:00Broken Clouds30°C9 mph, SW84%10000m1009hPa33%
18-Apr-2024 03:00Overcast Clouds28°C9 mph, SW93%10000m1009hPa58%
18-Apr-2024 06:00Overcast Clouds25°C7 mph, SW97%10000m1010hPa82%
18-Apr-2024 09:00Broken Clouds29°C7 mph, SW84%10000m1011hPa61%
18-Apr-2024 12:00Overcast Clouds37°C0 mph, W90%10000m1010hPa29%
18-Apr-2024 15:00Broken Clouds40°C4 mph, E64%10000m1006hPa21%
18-Apr-2024 18:00Broken Clouds38°C2 mph, SE63%10000m1005hPa23%
18-Apr-2024 21:00Broken Clouds33°C2 mph, W72%10000m1008hPa29%
19-Apr-2024 00:00Broken Clouds31°C4 mph, W73%10000m1009hPa36%
19-Apr-2024 03:00Scattered Clouds27°C9 mph, SW49%10000m1008hPa61%
19-Apr-2024 06:00Broken Clouds25°C7 mph, SW68%10000m1010hPa72%
19-Apr-2024 09:00Scattered Clouds29°C9 mph, SW43%10000m1012hPa54%
19-Apr-2024 12:00Scattered Clouds38°C4 mph, SW37%10000m1010hPa24%
19-Apr-2024 15:00Overcast Clouds41°C2 mph, S89%10000m1006hPa18%
19-Apr-2024 18:00Overcast Clouds37°C4 mph, W88%10000m1005hPa22%
19-Apr-2024 21:00Overcast Clouds33°C4 mph, SW99%10000m1008hPa28%
20-Apr-2024 00:00Overcast Clouds29°C11 mph, SW97%10000m1010hPa51%
20-Apr-2024 03:00Broken Clouds25°C9 mph, SW82%10000m1009hPa68%
20-Apr-2024 06:00Broken Clouds24°C9 mph, SW70%10000m1010hPa76%
20-Apr-2024 09:00Overcast Clouds28°C11 mph, SW98%10000m1012hPa59%
20-Apr-2024 12:00Overcast Clouds35°C9 mph, SW94%10000m1010hPa33%
20-Apr-2024 15:00Overcast Clouds38°C7 mph, SW100%10000m1006hPa22%
20-Apr-2024 18:00Overcast Clouds36°C9 mph, W99%10000m1004hPa26%
20-Apr-2024 21:00Broken Clouds31°C7 mph, SW84%10000m1007hPa38%
21-Apr-2024 00:00Scattered Clouds28°C11 mph, SW48%10000m1009hPa61%
21-Apr-2024 03:00Few Clouds25°C9 mph, SW18%10000m1009hPa76%
21-Apr-2024 06:00Broken Clouds24°C9 mph, SW55%10000m1009hPa81%
21-Apr-2024 09:00Overcast Clouds28°C9 mph, SW99%10000m1011hPa56%
21-Apr-2024 12:00Overcast Clouds35°C9 mph, SW98%10000m1009hPa33%
21-Apr-2024 15:00Overcast Clouds38°C9 mph, SW99%10000m1005hPa24%
21-Apr-2024 18:00Overcast Clouds36°C9 mph, W85%10000m1004hPa27%
21-Apr-2024 21:00Overcast Clouds29°C11 mph, S100%10000m1007hPa55%
22-Apr-2024 00:00Overcast Clouds27°C11 mph, W100%10000m1010hPa62%
22-Apr-2024 03:00Overcast Clouds24°C9 mph, SW100%10000m1009hPa71%
22-Apr-2024 06:00Overcast Clouds23°C7 mph, SW89%10000m1009hPa76%
22-Apr-2024 09:00Clear Sky28°C7 mph, SW5%10000m1011hPa45%
22-Apr-2024 12:00Few Clouds36°C4 mph, W19%10000m1009hPa21%
22-Apr-2024 15:00Scattered Clouds39°C4 mph, SW36%10000m1005hPa17%
22-Apr-2024 18:00Scattered Clouds37°C2 mph, SW40%10000m1004hPa22%
22-Apr-2024 21:00Broken Clouds31°C9 mph, SW51%10000m1008hPa38%